EKSP/SKS METAR and TAF weather

Enter ICAO airport designator
Station Type Date Time Source
EKSP METAR 2019/04/21 21:50 UTC NOAA

EKSP 212150Z 06002KT CAVOK 06/02 Q1020


Station Type Date Time Source
EKSP Decoded METAR 2019/04/21 21:50 UTC NOAA

Skrydstrup, Denmark (EKSP) 55-14N 009-16E 47M
Apr 21, 2019 - 05:50 PM EDT / 2019.04.21 2150 UTC
Wind: from the ENE (060 degrees) at 2 MPH (2 KT):0
Visibility: greater than 7 mile(s):0
Temperature: 42 F (6 C)
Dew Point: 35 F (2 C)
Relative Humidity: 75%
Pressure (altimeter): 30.12 in. Hg (1020 hPa)
ob: EKSP 212150Z 06002KT CAVOK 06/02 Q1020
cycle: 22

Station Type Date Time Source
EKSP TAF 2019/04/21 21:31 UTC NOAA

TAF EKSP 212019Z 2121/2221 11006KT 9999 FEW200
BECMG 2205/2208 12012KT
TEMPO 2211/2219 11015G28KT

Example: see airport list